sensor_id;sensor_type;location;lat;lon;timestamp;temperature;humidity
5226;DHT22;2632;51.666;7.146;2022-07-15T00:00:48;16.50;81.50
5226;DHT22;2632;51.666;7.146;2022-07-15T00:03:14;16.50;82.30
5226;DHT22;2632;51.666;7.146;2022-07-15T00:05:42;16.30;82.70
5226;DHT22;2632;51.666;7.146;2022-07-15T00:10:36;16.40;81.90
5226;DHT22;2632;51.666;7.146;2022-07-15T00:13:02;16.30;82.30
5226;DHT22;2632;51.666;7.146;2022-07-15T00:15:30;16.10;82.70
5226;DHT22;2632;51.666;7.146;2022-07-15T00:17:58;16.20;83.30
5226;DHT22;2632;51.666;7.146;2022-07-15T00:20:29;16.00;82.60
5226;DHT22;2632;51.666;7.146;2022-07-15T00:23:04;16.10;83.30
5226;DHT22;2632;51.666;7.146;2022-07-15T00:25:32;16.10;83.00
5226;DHT22;2632;51.666;7.146;2022-07-15T00:28:01;16.00;83.60
5226;DHT22;2632;51.666;7.146;2022-07-15T00:30:30;16.10;83.40
5226;DHT22;2632;51.666;7.146;2022-07-15T00:32:58;16.10;83.50
5226;DHT22;2632;51.666;7.146;2022-07-15T00:35:24;16.20;83.40
5226;DHT22;2632;51.666;7.146;2022-07-15T00:37:51;16.30;83.00
5226;DHT22;2632;51.666;7.146;2022-07-15T00:40:18;16.30;82.90
5226;DHT22;2632;51.666;7.146;2022-07-15T00:42:45;16.30;83.00
5226;DHT22;2632;51.666;7.146;2022-07-15T00:45:24;16.30;82.80
5226;DHT22;2632;51.666;7.146;2022-07-15T00:47:53;16.10;83.30
5226;DHT22;2632;51.666;7.146;2022-07-15T00:50:21;16.20;84.00
5226;DHT22;2632;51.666;7.146;2022-07-15T00:52:53;16.20;83.50
5226;DHT22;2632;51.666;7.146;2022-07-15T00:55:22;16.20;83.90
5226;DHT22;2632;51.666;7.146;2022-07-15T00:57:51;16.20;83.10
5226;DHT22;2632;51.666;7.146;2022-07-15T01:00:21;16.20;83.30
5226;DHT22;2632;51.666;7.146;2022-07-15T01:02:48;16.20;83.20
5226;DHT22;2632;51.666;7.146;2022-07-15T01:05:20;16.30;83.80
5226;DHT22;2632;51.666;7.146;2022-07-15T01:07:48;16.30;83.50
5226;DHT22;2632;51.666;7.146;2022-07-15T01:10:18;16.20;82.90
5226;DHT22;2632;51.666;7.146;2022-07-15T01:12:49;16.30;82.30
5226;DHT22;2632;51.666;7.146;2022-07-15T01:15:17;17.40;83.60
5226;DHT22;2632;51.666;7.146;2022-07-15T01:17:45;16.20;83.40
5226;DHT22;2632;51.666;7.146;2022-07-15T01:20:14;16.20;83.40
5226;DHT22;2632;51.666;7.146;2022-07-15T01:22:41;16.20;83.90
5226;DHT22;2632;51.666;7.146;2022-07-15T01:25:08;16.10;83.90
5226;DHT22;2632;51.666;7.146;2022-07-15T01:27:35;16.00;83.70
5226;DHT22;2632;51.666;7.146;2022-07-15T01:30:01;16.00;84.30
5226;DHT22;2632;51.666;7.146;2022-07-15T01:32:28;16.00;84.70
5226;DHT22;2632;51.666;7.146;2022-07-15T01:37:22;15.80;84.70
5226;DHT22;2632;51.666;7.146;2022-07-15T01:39:49;15.70;84.80
5226;DHT22;2632;51.666;7.146;2022-07-15T01:42:15;15.70;84.20
5226;DHT22;2632;51.666;7.146;2022-07-15T01:44:42;15.70;84.90
5226;DHT22;2632;51.666;7.146;2022-07-15T01:47:09;15.70;85.00
5226;DHT22;2632;51.666;7.146;2022-07-15T01:49:36;15.60;85.40
5226;DHT22;2632;51.666;7.146;2022-07-15T01:52:04;15.60;85.40
5226;DHT22;2632;51.666;7.146;2022-07-15T01:54:31;15.50;85.50
5226;DHT22;2632;51.666;7.146;2022-07-15T01:56:58;15.40;86.40
5226;DHT22;2632;51.666;7.146;2022-07-15T01:59:25;15.30;86.80
5226;DHT22;2632;51.666;7.146;2022-07-15T02:01:55;15.20;87.00
5226;DHT22;2632;51.666;7.146;2022-07-15T02:04:22;15.20;86.50
5226;DHT22;2632;51.666;7.146;2022-07-15T02:06:49;15.20;87.10
5226;DHT22;2632;51.666;7.146;2022-07-15T02:09:16;15.20;87.10
5226;DHT22;2632;51.666;7.146;2022-07-15T02:11:44;15.20;87.20
5226;DHT22;2632;51.666;7.146;2022-07-15T02:14:11;15.20;87.20
5226;DHT22;2632;51.666;7.146;2022-07-15T02:16:38;15.10;87.00
5226;DHT22;2632;51.666;7.146;2022-07-15T02:19:05;15.10;87.00
5226;DHT22;2632;51.666;7.146;2022-07-15T02:21:32;15.10;87.00
5226;DHT22;2632;51.666;7.146;2022-07-15T02:23:59;15.10;87.20
5226;DHT22;2632;51.666;7.146;2022-07-15T02:26:25;15.00;86.70
5226;DHT22;2632;51.666;7.146;2022-07-15T02:28:52;15.00;87.00
5226;DHT22;2632;51.666;7.146;2022-07-15T02:35:07;15.00;86.70
5226;DHT22;2632;51.666;7.146;2022-07-15T02:37:34;14.90;87.20
5226;DHT22;2632;51.666;7.146;2022-07-15T02:40:01;14.90;87.40
5226;DHT22;2632;51.666;7.146;2022-07-15T02:42:28;14.80;87.80
5226;DHT22;2632;51.666;7.146;2022-07-15T02:44:54;14.80;87.60
5226;DHT22;2632;51.666;7.146;2022-07-15T02:47:21;14.80;87.70
5226;DHT22;2632;51.666;7.146;2022-07-15T02:49:47;14.80;87.30
5226;DHT22;2632;51.666;7.146;2022-07-15T02:52:14;14.80;87.80
5226;DHT22;2632;51.666;7.146;2022-07-15T02:54:41;14.70;88.20
5226;DHT22;2632;51.666;7.146;2022-07-15T02:57:07;14.70;87.50
5226;DHT22;2632;51.666;7.146;2022-07-15T02:59:34;14.70;87.60
5226;DHT22;2632;51.666;7.146;2022-07-15T03:02:00;14.60;88.20
5226;DHT22;2632;51.666;7.146;2022-07-15T03:04:27;14.60;88.10
5226;DHT22;2632;51.666;7.146;2022-07-15T03:06:54;14.60;88.50
5226;DHT22;2632;51.666;7.146;2022-07-15T03:09:20;14.50;88.10
5226;DHT22;2632;51.666;7.146;2022-07-15T03:11:47;14.60;88.10
5226;DHT22;2632;51.666;7.146;2022-07-15T03:14:14;14.40;88.20
5226;DHT22;2632;51.666;7.146;2022-07-15T03:16:46;14.40;88.40
5226;DHT22;2632;51.666;7.146;2022-07-15T03:19:13;14.30;88.60
5226;DHT22;2632;51.666;7.146;2022-07-15T03:21:39;14.30;88.80
5226;DHT22;2632;51.666;7.146;2022-07-15T03:24:06;14.20;88.80
5226;DHT22;2632;51.666;7.146;2022-07-15T03:26:34;14.20;90.00
5226;DHT22;2632;51.666;7.146;2022-07-15T03:29:00;14.10;89.50
5226;DHT22;2632;51.666;7.146;2022-07-15T03:31:27;14.10;89.30
5226;DHT22;2632;51.666;7.146;2022-07-15T03:33:57;14.10;89.60
5226;DHT22;2632;51.666;7.146;2022-07-15T03:36:23;14.10;89.50
5226;DHT22;2632;51.666;7.146;2022-07-15T03:38:51;14.10;89.60
5226;DHT22;2632;51.666;7.146;2022-07-15T03:41:18;14.00;90.00
5226;DHT22;2632;51.666;7.146;2022-07-15T03:43:45;14.00;89.80
5226;DHT22;2632;51.666;7.146;2022-07-15T03:46:12;14.00;89.80
5226;DHT22;2632;51.666;7.146;2022-07-15T03:48:42;14.00;90.00
5226;DHT22;2632;51.666;7.146;2022-07-15T03:51:08;14.00;89.60
5226;DHT22;2632;51.666;7.146;2022-07-15T03:53:36;14.00;89.90
5226;DHT22;2632;51.666;7.146;2022-07-15T03:56:03;14.00;90.00
5226;DHT22;2632;51.666;7.146;2022-07-15T03:58:29;14.00;89.60
5226;DHT22;2632;51.666;7.146;2022-07-15T04:00:56;14.00;90.00
5226;DHT22;2632;51.666;7.146;2022-07-15T04:03:23;14.00;90.10
5226;DHT22;2632;51.666;7.146;2022-07-15T04:05:50;14.10;90.20
5226;DHT22;2632;51.666;7.146;2022-07-15T04:08:17;14.00;90.20
5226;DHT22;2632;51.666;7.146;2022-07-15T04:10:43;14.00;90.00
5226;DHT22;2632;51.666;7.146;2022-07-15T04:13:10;14.00;89.80
5226;DHT22;2632;51.666;7.146;2022-07-15T04:15:37;14.00;90.00
5226;DHT22;2632;51.666;7.146;2022-07-15T04:18:03;14.00;90.00
5226;DHT22;2632;51.666;7.146;2022-07-15T04:20:30;14.00;90.00
5226;DHT22;2632;51.666;7.146;2022-07-15T04:22:57;14.00;90.10
5226;DHT22;2632;51.666;7.146;2022-07-15T04:25:23;14.10;90.30
5226;DHT22;2632;51.666;7.146;2022-07-15T04:27:50;14.10;90.00
5226;DHT22;2632;51.666;7.146;2022-07-15T04:30:17;14.20;89.80
5226;DHT22;2632;51.666;7.146;2022-07-15T04:32:43;14.20;88.90
5226;DHT22;2632;51.666;7.146;2022-07-15T04:35:10;14.20;89.80
5226;DHT22;2632;51.666;7.146;2022-07-15T04:37:36;14.30;90.00
5226;DHT22;2632;51.666;7.146;2022-07-15T04:40:04;14.30;89.60
5226;DHT22;2632;51.666;7.146;2022-07-15T04:42:33;14.30;89.60
5226;DHT22;2632;51.666;7.146;2022-07-15T04:45:00;14.30;89.30
5226;DHT22;2632;51.666;7.146;2022-07-15T04:47:26;14.40;89.80
5226;DHT22;2632;51.666;7.146;2022-07-15T04:49:53;14.40;89.30
5226;DHT22;2632;51.666;7.146;2022-07-15T04:52:45;14.30;89.30
5226;DHT22;2632;51.666;7.146;2022-07-15T04:55:13;14.40;89.80
5226;DHT22;2632;51.666;7.146;2022-07-15T04:57:40;14.40;89.70
5226;DHT22;2632;51.666;7.146;2022-07-15T05:00:08;14.40;89.70
5226;DHT22;2632;51.666;7.146;2022-07-15T05:02:35;14.50;90.00
5226;DHT22;2632;51.666;7.146;2022-07-15T05:05:02;14.50;90.00
5226;DHT22;2632;51.666;7.146;2022-07-15T05:07:29;14.50;90.10
5226;DHT22;2632;51.666;7.146;2022-07-15T05:09:56;14.60;90.00
5226;DHT22;2632;51.666;7.146;2022-07-15T05:12:22;14.70;89.70
5226;DHT22;2632;51.666;7.146;2022-07-15T05:14:49;14.80;88.80
5226;DHT22;2632;51.666;7.146;2022-07-15T05:17:16;14.80;88.90
5226;DHT22;2632;51.666;7.146;2022-07-15T05:19:42;14.80;89.70
5226;DHT22;2632;51.666;7.146;2022-07-15T05:22:09;14.80;89.40
5226;DHT22;2632;51.666;7.146;2022-07-15T05:24:36;14.80;89.10
5226;DHT22;2632;51.666;7.146;2022-07-15T05:27:03;14.80;88.60
5226;DHT22;2632;51.666;7.146;2022-07-15T05:29:29;14.80;89.70
5226;DHT22;2632;51.666;7.146;2022-07-15T05:31:56;14.90;88.70
5226;DHT22;2632;51.666;7.146;2022-07-15T05:34:23;15.00;87.90
5226;DHT22;2632;51.666;7.146;2022-07-15T05:36:49;15.00;88.50
5226;DHT22;2632;51.666;7.146;2022-07-15T05:39:16;15.10;90.30
5226;DHT22;2632;51.666;7.146;2022-07-15T05:41:43;15.30;87.10
5226;DHT22;2632;51.666;7.146;2022-07-15T05:44:14;15.20;86.90
5226;DHT22;2632;51.666;7.146;2022-07-15T05:46:41;15.20;87.30
5226;DHT22;2632;51.666;7.146;2022-07-15T05:49:08;15.20;87.60
5226;DHT22;2632;51.666;7.146;2022-07-15T05:51:34;15.20;88.70
5226;DHT22;2632;51.666;7.146;2022-07-15T05:54:01;15.20;88.50
5226;DHT22;2632;51.666;7.146;2022-07-15T05:56:28;15.30;86.70
5226;DHT22;2632;51.666;7.146;2022-07-15T05:58:54;15.30;86.40
5226;DHT22;2632;51.666;7.146;2022-07-15T06:01:21;15.40;87.30
5226;DHT22;2632;51.666;7.146;2022-07-15T06:03:49;15.40;87.80
5226;DHT22;2632;51.666;7.146;2022-07-15T06:06:17;15.50;87.10
5226;DHT22;2632;51.666;7.146;2022-07-15T06:08:44;15.60;86.80
5226;DHT22;2632;51.666;7.146;2022-07-15T06:11:11;15.60;86.40
5226;DHT22;2632;51.666;7.146;2022-07-15T06:13:38;15.80;86.30
5226;DHT22;2632;51.666;7.146;2022-07-15T06:16:06;15.70;85.40
5226;DHT22;2632;51.666;7.146;2022-07-15T06:18:33;15.70;85.80
5226;DHT22;2632;51.666;7.146;2022-07-15T06:21:00;15.80;85.80
5226;DHT22;2632;51.666;7.146;2022-07-15T06:23:27;15.80;86.00
5226;DHT22;2632;51.666;7.146;2022-07-15T06:25:54;15.90;86.10
5226;DHT22;2632;51.666;7.146;2022-07-15T06:28:22;15.90;85.40
5226;DHT22;2632;51.666;7.146;2022-07-15T06:30:49;15.90;85.70
5226;DHT22;2632;51.666;7.146;2022-07-15T06:33:15;16.00;85.20
5226;DHT22;2632;51.666;7.146;2022-07-15T06:35:42;16.00;84.80
5226;DHT22;2632;51.666;7.146;2022-07-15T06:38:11;16.10;85.50
5226;DHT22;2632;51.666;7.146;2022-07-15T06:40:37;16.20;84.60
5226;DHT22;2632;51.666;7.146;2022-07-15T06:43:04;16.20;83.70
5226;DHT22;2632;51.666;7.146;2022-07-15T06:45:31;16.30;83.00
5226;DHT22;2632;51.666;7.146;2022-07-15T06:47:58;16.30;81.20
5226;DHT22;2632;51.666;7.146;2022-07-15T06:50:24;16.30;82.20
5226;DHT22;2632;51.666;7.146;2022-07-15T06:52:51;16.40;80.30
5226;DHT22;2632;51.666;7.146;2022-07-15T06:55:18;16.40;81.10
5226;DHT22;2632;51.666;7.146;2022-07-15T06:57:44;16.40;78.70
5226;DHT22;2632;51.666;7.146;2022-07-15T07:00:11;16.40;80.40
5226;DHT22;2632;51.666;7.146;2022-07-15T07:02:40;16.40;80.80
5226;DHT22;2632;51.666;7.146;2022-07-15T07:05:13;16.50;81.70
5226;DHT22;2632;51.666;7.146;2022-07-15T07:07:40;16.60;80.30
5226;DHT22;2632;51.666;7.146;2022-07-15T07:10:07;16.70;81.20
5226;DHT22;2632;51.666;7.146;2022-07-15T07:12:34;16.80;79.80
5226;DHT22;2632;51.666;7.146;2022-07-15T07:15:00;16.90;79.30
5226;DHT22;2632;51.666;7.146;2022-07-15T07:17:29;17.00;77.80
5226;DHT22;2632;51.666;7.146;2022-07-15T07:19:55;17.00;78.10
5226;DHT22;2632;51.666;7.146;2022-07-15T07:22:22;16.90;77.60
5226;DHT22;2632;51.666;7.146;2022-07-15T07:24:49;17.00;77.80
5226;DHT22;2632;51.666;7.146;2022-07-15T07:27:15;17.10;76.80
5226;DHT22;2632;51.666;7.146;2022-07-15T07:29:42;17.10;78.20
5226;DHT22;2632;51.666;7.146;2022-07-15T07:32:09;17.20;77.80
5226;DHT22;2632;51.666;7.146;2022-07-15T07:34:35;17.30;77.00
5226;DHT22;2632;51.666;7.146;2022-07-15T07:37:02;17.30;76.90
5226;DHT22;2632;51.666;7.146;2022-07-15T07:39:28;17.30;77.20
5226;DHT22;2632;51.666;7.146;2022-07-15T07:41:55;17.40;77.50
5226;DHT22;2632;51.666;7.146;2022-07-15T07:44:22;17.50;76.60
5226;DHT22;2632;51.666;7.146;2022-07-15T07:46:48;17.60;76.10
5226;DHT22;2632;51.666;7.146;2022-07-15T07:49:15;17.60;75.10
5226;DHT22;2632;51.666;7.146;2022-07-15T07:52:02;17.50;75.90
5226;DHT22;2632;51.666;7.146;2022-07-15T07:54:29;17.60;74.80
5226;DHT22;2632;51.666;7.146;2022-07-15T07:56:56;17.60;75.90
5226;DHT22;2632;51.666;7.146;2022-07-15T07:59:22;17.60;75.50
5226;DHT22;2632;51.666;7.146;2022-07-15T08:01:49;17.70;75.10
5226;DHT22;2632;51.666;7.146;2022-07-15T08:04:16;17.70;74.30
5226;DHT22;2632;51.666;7.146;2022-07-15T08:06:43;17.80;73.60
5226;DHT22;2632;51.666;7.146;2022-07-15T08:09:09;17.90;74.00
5226;DHT22;2632;51.666;7.146;2022-07-15T08:11:36;17.90;73.10
5226;DHT22;2632;51.666;7.146;2022-07-15T08:14:03;17.90;73.10
5226;DHT22;2632;51.666;7.146;2022-07-15T08:16:29;18.00;72.90
5226;DHT22;2632;51.666;7.146;2022-07-15T08:18:56;18.10;73.80
5226;DHT22;2632;51.666;7.146;2022-07-15T08:21:23;18.30;71.40
5226;DHT22;2632;51.666;7.146;2022-07-15T08:23:49;18.30;72.70
5226;DHT22;2632;51.666;7.146;2022-07-15T08:26:16;18.30;71.10
5226;DHT22;2632;51.666;7.146;2022-07-15T08:28:50;18.40;71.90
5226;DHT22;2632;51.666;7.146;2022-07-15T08:31:31;18.40;71.30
5226;DHT22;2632;51.666;7.146;2022-07-15T08:33:57;18.50;72.10
5226;DHT22;2632;51.666;7.146;2022-07-15T08:36:24;18.60;70.20
5226;DHT22;2632;51.666;7.146;2022-07-15T08:38:51;18.70;70.00
5226;DHT22;2632;51.666;7.146;2022-07-15T08:41:17;18.70;71.20
5226;DHT22;2632;51.666;7.146;2022-07-15T08:43:45;18.60;70.10
5226;DHT22;2632;51.666;7.146;2022-07-15T08:46:14;18.60;70.10
5226;DHT22;2632;51.666;7.146;2022-07-15T08:48:49;18.50;69.40
5226;DHT22;2632;51.666;7.146;2022-07-15T08:51:21;18.50;69.70
5226;DHT22;2632;51.666;7.146;2022-07-15T08:53:51;18.60;69.30
5226;DHT22;2632;51.666;7.146;2022-07-15T08:56:19;18.80;68.90
5226;DHT22;2632;51.666;7.146;2022-07-15T08:58:47;18.90;67.50
5226;DHT22;2632;51.666;7.146;2022-07-15T09:01:26;19.20;72.30
5226;DHT22;2632;51.666;7.146;2022-07-15T09:03:53;19.30;70.60
5226;DHT22;2632;51.666;7.146;2022-07-15T09:06:36;19.30;67.90
5226;DHT22;2632;51.666;7.146;2022-07-15T09:09:22;19.30;71.10
5226;DHT22;2632;51.666;7.146;2022-07-15T09:12:02;19.40;69.80
5226;DHT22;2632;51.666;7.146;2022-07-15T09:14:41;19.40;67.70
5226;DHT22;2632;51.666;7.146;2022-07-15T09:19:55;19.50;67.50
5226;DHT22;2632;51.666;7.146;2022-07-15T09:22:23;19.60;68.10
5226;DHT22;2632;51.666;7.146;2022-07-15T09:24:51;19.70;69.10
5226;DHT22;2632;51.666;7.146;2022-07-15T09:27:27;19.60;67.80
5226;DHT22;2632;51.666;7.146;2022-07-15T09:29:55;19.70;69.60
5226;DHT22;2632;51.666;7.146;2022-07-15T09:32:40;19.70;68.70
5226;DHT22;2632;51.666;7.146;2022-07-15T09:35:27;19.70;67.10
5226;DHT22;2632;51.666;7.146;2022-07-15T09:38:12;19.60;68.00
5226;DHT22;2632;51.666;7.146;2022-07-15T09:40:47;19.60;65.70
5226;DHT22;2632;51.666;7.146;2022-07-15T09:43:14;19.60;67.80
5226;DHT22;2632;51.666;7.146;2022-07-15T09:45:41;19.60;65.90
5226;DHT22;2632;51.666;7.146;2022-07-15T09:48:09;19.70;65.80
5226;DHT22;2632;51.666;7.146;2022-07-15T09:50:37;19.70;65.60
5226;DHT22;2632;51.666;7.146;2022-07-15T09:53:09;19.90;64.60
5226;DHT22;2632;51.666;7.146;2022-07-15T09:55:36;19.90;67.50
5226;DHT22;2632;51.666;7.146;2022-07-15T09:58:04;20.00;65.50
5226;DHT22;2632;51.666;7.146;2022-07-15T10:00:32;20.00;67.30
5226;DHT22;2632;51.666;7.146;2022-07-15T10:02:59;20.00;66.80
5226;DHT22;2632;51.666;7.146;2022-07-15T10:05:26;19.90;63.50
5226;DHT22;2632;51.666;7.146;2022-07-15T10:07:54;19.80;63.90
5226;DHT22;2632;51.666;7.146;2022-07-15T10:10:23;19.90;66.90
5226;DHT22;2632;51.666;7.146;2022-07-15T10:18:11;19.90;65.40
5226;DHT22;2632;51.666;7.146;2022-07-15T10:20:57;20.00;66.60
5226;DHT22;2632;51.666;7.146;2022-07-15T10:26:28;20.00;64.50
5226;DHT22;2632;51.666;7.146;2022-07-15T10:29:03;20.10;64.90
5226;DHT22;2632;51.666;7.146;2022-07-15T10:31:31;20.10;65.70
5226;DHT22;2632;51.666;7.146;2022-07-15T10:39:18;20.20;63.40
5226;DHT22;2632;51.666;7.146;2022-07-15T10:42:00;20.20;63.80
5226;DHT22;2632;51.666;7.146;2022-07-15T10:44:34;20.20;64.30
5226;DHT22;2632;51.666;7.146;2022-07-15T10:49:48;20.10;63.70
5226;DHT22;2632;51.666;7.146;2022-07-15T10:52:27;20.10;61.00
5226;DHT22;2632;51.666;7.146;2022-07-15T11:00:27;20.20;63.60
5226;DHT22;2632;51.666;7.146;2022-07-15T11:03:14;20.20;64.60
5226;DHT22;2632;51.666;7.146;2022-07-15T11:13:43;20.20;63.50
5226;DHT22;2632;51.666;7.146;2022-07-15T11:16:14;20.20;60.00
5226;DHT22;2632;51.666;7.146;2022-07-15T11:18:50;20.10;59.10
5226;DHT22;2632;51.666;7.146;2022-07-15T11:21:17;20.20;62.60
5226;DHT22;2632;51.666;7.146;2022-07-15T11:23:47;20.30;60.50
5226;DHT22;2632;51.666;7.146;2022-07-15T11:26:14;20.40;61.50
5226;DHT22;2632;51.666;7.146;2022-07-15T11:28:51;20.50;62.90
5226;DHT22;2632;51.666;7.146;2022-07-15T11:31:24;20.50;62.00
5226;DHT22;2632;51.666;7.146;2022-07-15T11:33:53;20.60;62.60
5226;DHT22;2632;51.666;7.146;2022-07-15T11:36:21;20.60;62.40
5226;DHT22;2632;51.666;7.146;2022-07-15T11:38:51;20.70;62.20
5226;DHT22;2632;51.666;7.146;2022-07-15T11:41:19;20.60;60.80
5226;DHT22;2632;51.666;7.146;2022-07-15T11:44:07;20.60;60.40
5226;DHT22;2632;51.666;7.146;2022-07-15T11:46:53;20.70;58.40
5226;DHT22;2632;51.666;7.146;2022-07-15T11:49:34;20.70;60.70
5226;DHT22;2632;51.666;7.146;2022-07-15T11:52:04;20.60;60.80
5226;DHT22;2632;51.666;7.146;2022-07-15T11:54:31;20.60;61.80
5226;DHT22;2632;51.666;7.146;2022-07-15T11:57:05;20.60;61.90
5226;DHT22;2632;51.666;7.146;2022-07-15T11:59:33;20.50;59.20
5226;DHT22;2632;51.666;7.146;2022-07-15T12:04:35;20.70;60.00
5226;DHT22;2632;51.666;7.146;2022-07-15T12:07:02;20.60;61.10
5226;DHT22;2632;51.666;7.146;2022-07-15T12:12:06;20.50;61.10
5226;DHT22;2632;51.666;7.146;2022-07-15T12:14:34;20.50;61.30
5226;DHT22;2632;51.666;7.146;2022-07-15T12:17:01;20.60;60.70
5226;DHT22;2632;51.666;7.146;2022-07-15T12:19:29;20.70;60.80
5226;DHT22;2632;51.666;7.146;2022-07-15T12:21:58;20.70;59.90
5226;DHT22;2632;51.666;7.146;2022-07-15T12:24:36;20.60;59.50
5226;DHT22;2632;51.666;7.146;2022-07-15T12:27:03;20.70;58.40
5226;DHT22;2632;51.666;7.146;2022-07-15T12:29:34;20.70;56.20
5226;DHT22;2632;51.666;7.146;2022-07-15T12:32:24;20.70;59.70
5226;DHT22;2632;51.666;7.146;2022-07-15T12:34:56;20.60;56.80
5226;DHT22;2632;51.666;7.146;2022-07-15T12:39:55;20.70;60.50
5226;DHT22;2632;51.666;7.146;2022-07-15T12:42:22;20.70;58.90
5226;DHT22;2632;51.666;7.146;2022-07-15T12:45:10;20.80;60.20
5226;DHT22;2632;51.666;7.146;2022-07-15T12:48:08;20.90;55.80
5226;DHT22;2632;51.666;7.146;2022-07-15T12:53:24;21.30;58.30
5226;DHT22;2632;51.666;7.146;2022-07-15T12:55:52;21.30;59.10
5226;DHT22;2632;51.666;7.146;2022-07-15T12:58:24;21.10;59.10
5226;DHT22;2632;51.666;7.146;2022-07-15T13:00:51;20.90;59.30
5226;DHT22;2632;51.666;7.146;2022-07-15T13:03:20;21.00;56.30
5226;DHT22;2632;51.666;7.146;2022-07-15T13:05:53;21.10;58.50
5226;DHT22;2632;51.666;7.146;2022-07-15T13:08:24;21.10;57.00
5226;DHT22;2632;51.666;7.146;2022-07-15T13:10:53;21.00;58.90
5226;DHT22;2632;51.666;7.146;2022-07-15T13:13:23;21.00;58.90
5226;DHT22;2632;51.666;7.146;2022-07-15T13:15:50;21.00;59.70
5226;DHT22;2632;51.666;7.146;2022-07-15T13:18:18;20.90;59.60
5226;DHT22;2632;51.666;7.146;2022-07-15T13:20:45;21.00;59.50
5226;DHT22;2632;51.666;7.146;2022-07-15T13:23:13;21.10;55.60
5226;DHT22;2632;51.666;7.146;2022-07-15T13:25:40;21.10;55.20
5226;DHT22;2632;51.666;7.146;2022-07-15T13:28:09;21.30;55.40
5226;DHT22;2632;51.666;7.146;2022-07-15T13:30:37;21.30;55.20
5226;DHT22;2632;51.666;7.146;2022-07-15T13:33:05;21.30;54.90
5226;DHT22;2632;51.666;7.146;2022-07-15T13:35:32;21.40;56.50
5226;DHT22;2632;51.666;7.146;2022-07-15T13:38:00;21.20;56.40
5226;DHT22;2632;51.666;7.146;2022-07-15T13:40:26;21.40;56.30
5226;DHT22;2632;51.666;7.146;2022-07-15T13:42:53;21.30;58.60
5226;DHT22;2632;51.666;7.146;2022-07-15T13:45:19;21.10;58.50
5226;DHT22;2632;51.666;7.146;2022-07-15T13:47:46;21.00;58.90
5226;DHT22;2632;51.666;7.146;2022-07-15T13:50:13;21.20;55.70
5226;DHT22;2632;51.666;7.146;2022-07-15T13:52:59;21.20;57.00
5226;DHT22;2632;51.666;7.146;2022-07-15T13:55:27;21.20;58.70
5226;DHT22;2632;51.666;7.146;2022-07-15T13:57:53;21.20;58.00
5226;DHT22;2632;51.666;7.146;2022-07-15T14:00:23;21.20;58.40
5226;DHT22;2632;51.666;7.146;2022-07-15T14:02:52;21.10;56.00
5226;DHT22;2632;51.666;7.146;2022-07-15T14:05:19;21.10;59.00
5226;DHT22;2632;51.666;7.146;2022-07-15T14:07:46;20.90;58.40
5226;DHT22;2632;51.666;7.146;2022-07-15T14:10:14;21.00;58.50
5226;DHT22;2632;51.666;7.146;2022-07-15T14:12:41;21.10;56.20
5226;DHT22;2632;51.666;7.146;2022-07-15T14:15:08;21.10;56.40
5226;DHT22;2632;51.666;7.146;2022-07-15T14:17:35;21.10;55.40
5226;DHT22;2632;51.666;7.146;2022-07-15T14:20:03;21.20;56.00
5226;DHT22;2632;51.666;7.146;2022-07-15T14:22:30;21.30;57.00
5226;DHT22;2632;51.666;7.146;2022-07-15T14:24:58;21.50;56.60
5226;DHT22;2632;51.666;7.146;2022-07-15T14:27:26;21.50;55.00
5226;DHT22;2632;51.666;7.146;2022-07-15T14:29:53;21.50;58.10
5226;DHT22;2632;51.666;7.146;2022-07-15T14:32:27;21.30;58.80
5226;DHT22;2632;51.666;7.146;2022-07-15T14:34:57;21.10;59.10
5226;DHT22;2632;51.666;7.146;2022-07-15T14:37:24;21.20;58.70
5226;DHT22;2632;51.666;7.146;2022-07-15T14:39:59;21.20;58.40
5226;DHT22;2632;51.666;7.146;2022-07-15T14:42:26;21.40;59.00
5226;DHT22;2632;51.666;7.146;2022-07-15T14:44:53;21.40;57.80
5226;DHT22;2632;51.666;7.146;2022-07-15T14:47:20;21.70;54.80
5226;DHT22;2632;51.666;7.146;2022-07-15T14:49:46;21.70;57.60
5226;DHT22;2632;51.666;7.146;2022-07-15T14:52:13;21.90;55.00
5226;DHT22;2632;51.666;7.146;2022-07-15T14:54:40;22.00;56.00
5226;DHT22;2632;51.666;7.146;2022-07-15T14:57:07;22.10;55.80
5226;DHT22;2632;51.666;7.146;2022-07-15T14:59:34;22.20;54.40
5226;DHT22;2632;51.666;7.146;2022-07-15T15:02:07;22.50;53.10
5226;DHT22;2632;51.666;7.146;2022-07-15T15:04:34;22.50;53.10
5226;DHT22;2632;51.666;7.146;2022-07-15T15:07:01;22.40;54.50
5226;DHT22;2632;51.666;7.146;2022-07-15T15:09:28;22.30;51.30
5226;DHT22;2632;51.666;7.146;2022-07-15T15:11:55;22.20;52.50
5226;DHT22;2632;51.666;7.146;2022-07-15T15:14:22;22.10;52.00
5226;DHT22;2632;51.666;7.146;2022-07-15T15:16:50;22.10;51.90
5226;DHT22;2632;51.666;7.146;2022-07-15T15:19:28;22.10;52.80
5226;DHT22;2632;51.666;7.146;2022-07-15T15:21:55;22.00;52.20
5226;DHT22;2632;51.666;7.146;2022-07-15T15:24:22;22.10;52.30
5226;DHT22;2632;51.666;7.146;2022-07-15T15:26:49;22.00;53.30
5226;DHT22;2632;51.666;7.146;2022-07-15T15:29:19;22.00;51.60
5226;DHT22;2632;51.666;7.146;2022-07-15T15:31:47;22.00;51.90
5226;DHT22;2632;51.666;7.146;2022-07-15T15:34:16;22.00;51.70
5226;DHT22;2632;51.666;7.146;2022-07-15T15:36:43;22.00;51.80
5226;DHT22;2632;51.666;7.146;2022-07-15T15:39:11;22.00;52.60
5226;DHT22;2632;51.666;7.146;2022-07-15T15:41:37;22.00;53.90
5226;DHT22;2632;51.666;7.146;2022-07-15T15:44:04;22.00;52.90
5226;DHT22;2632;51.666;7.146;2022-07-15T15:46:31;22.00;52.70
5226;DHT22;2632;51.666;7.146;2022-07-15T15:48:58;22.00;52.60
5226;DHT22;2632;51.666;7.146;2022-07-15T15:51:24;22.00;54.30
5226;DHT22;2632;51.666;7.146;2022-07-15T15:53:51;21.90;55.20
5226;DHT22;2632;51.666;7.146;2022-07-15T15:56:18;21.90;51.90
5226;DHT22;2632;51.666;7.146;2022-07-15T15:58:45;21.90;52.50
5226;DHT22;2632;51.666;7.146;2022-07-15T16:01:12;21.90;52.90
5226;DHT22;2632;51.666;7.146;2022-07-15T16:03:39;21.90;53.80
5226;DHT22;2632;51.666;7.146;2022-07-15T16:06:06;22.00;54.00
5226;DHT22;2632;51.666;7.146;2022-07-15T16:08:33;22.10;53.30
5226;DHT22;2632;51.666;7.146;2022-07-15T16:10:59;22.10;52.50
5226;DHT22;2632;51.666;7.146;2022-07-15T16:13:26;22.10;52.30
5226;DHT22;2632;51.666;7.146;2022-07-15T16:15:54;22.10;54.60
5226;DHT22;2632;51.666;7.146;2022-07-15T16:18:20;22.00;52.00
5226;DHT22;2632;51.666;7.146;2022-07-15T16:20:48;22.00;51.20
5226;DHT22;2632;51.666;7.146;2022-07-15T16:23:16;22.00;53.40
5226;DHT22;2632;51.666;7.146;2022-07-15T16:25:45;22.00;52.00
5226;DHT22;2632;51.666;7.146;2022-07-15T16:28:12;22.00;54.00
5226;DHT22;2632;51.666;7.146;2022-07-15T16:30:42;22.00;53.90
5226;DHT22;2632;51.666;7.146;2022-07-15T16:33:09;21.90;53.20
5226;DHT22;2632;51.666;7.146;2022-07-15T16:35:37;21.80;54.30
5226;DHT22;2632;51.666;7.146;2022-07-15T16:38:05;21.70;55.40
5226;DHT22;2632;51.666;7.146;2022-07-15T16:40:32;21.70;53.50
5226;DHT22;2632;51.666;7.146;2022-07-15T16:43:00;21.80;54.60
5226;DHT22;2632;51.666;7.146;2022-07-15T16:45:28;21.70;54.60
5226;DHT22;2632;51.666;7.146;2022-07-15T16:47:55;21.70;55.30
5226;DHT22;2632;51.666;7.146;2022-07-15T16:50:22;21.70;55.20
5226;DHT22;2632;51.666;7.146;2022-07-15T16:52:49;21.70;54.40
5226;DHT22;2632;51.666;7.146;2022-07-15T16:55:16;21.70;54.90
5226;DHT22;2632;51.666;7.146;2022-07-15T16:57:43;21.70;56.70
5226;DHT22;2632;51.666;7.146;2022-07-15T17:00:12;21.70;55.40
5226;DHT22;2632;51.666;7.146;2022-07-15T17:02:48;21.70;54.40